Time;durP1;ratioP1;P1;durP2;ratioP2;P2;SDS_P1;SDS_P2;PMS_P1;PMS_P2;Temp;Humidity;BMP_temperature;BMP_pressure;BME280_temperature;BME280_humidity;BME280_pressure;Samples;Min_cycle;Max_cycle;Signal;HPM_P1;HPM_P2
2022/02/12 05:00:17;;;;;;;5.78;3.20;;;1.20;99.90;;;;;;5959688;23;20196;31
2022/02/12 05:02:46;;;;;;;6.60;2.70;;;1.20;99.90;;;;;;4945886;29;20245;-69
2022/02/12 05:05:13;;;;;;;5.80;2.92;;;1.20;99.90;;;;;;4943902;28;20206;-68
2022/02/12 05:07:41;;;;;;;3.78;2.70;;;1.20;99.90;;;;;;4950446;28;20209;-69
2022/02/12 05:10:08;;;;;;;7.30;3.78;;;1.20;99.90;;;;;;4955429;29;20205;-69
2022/02/12 05:12:35;;;;;;;6.68;2.55;;;1.20;99.90;;;;;;4949087;28;20217;-69
2022/02/12 05:15:02;;;;;;;4.82;3.28;;;1.30;99.90;;;;;;4947328;28;20209;-69
2022/02/12 05:17:30;;;;;;;2.58;2.38;;;1.30;99.90;;;;;;4938548;29;20202;-69
2022/02/12 05:19:56;;;;;;;5.20;2.83;;;1.30;99.90;;;;;;4950257;29;20209;-69
2022/02/12 05:22:24;;;;;;;11.68;4.03;;;1.30;99.90;;;;;;4944738;29;20229;-69
2022/02/12 05:24:51;;;;;;;33.28;15.20;;;1.30;99.90;;;;;;4937424;29;20642;-69
2022/02/12 05:27:17;;;;;;;26.85;13.10;;;1.30;99.90;;;;;;4943470;29;20205;-69
2022/02/12 05:29:44;;;;;;;113.53;43.38;;;1.30;99.90;;;;;;4936732;28;20210;-69
2022/02/12 05:32:11;;;;;;;88.95;38.88;;;1.30;99.90;;;;;;4943537;29;20213;-69
2022/02/12 05:34:39;;;;;;;5.38;4.85;;;1.30;99.90;;;;;;4937960;28;20220;-69
2022/02/12 05:37:05;;;;;;;10.65;3.35;;;1.30;99.90;;;;;;4945407;29;20571;-69
2022/02/12 05:39:33;;;;;;;3.72;3.13;;;1.30;99.90;;;;;;4944430;29;20212;-69
2022/02/12 05:41:59;;;;;;;2.65;2.55;;;1.20;99.90;;;;;;4951032;29;20240;-69
2022/02/12 05:44:26;;;;;;;10.63;3.10;;;1.20;99.90;;;;;;4952091;28;20213;-69
2022/02/12 05:46:53;;;;;;;6.50;3.05;;;1.20;99.90;;;;;;4948225;29;20214;-69
2022/02/12 05:49:20;;;;;;;4.07;2.63;;;1.10;99.90;;;;;;4938645;28;20261;-69
2022/02/12 05:51:48;;;;;;;4.70;3.90;;;1.00;99.90;;;;;;4948036;29;20217;-69
2022/02/12 05:54:14;;;;;;;8.25;4.88;;;1.00;99.90;;;;;;4954346;28;20214;-69
2022/02/12 05:56:41;;;;;;;7.95;3.35;;;0.90;99.90;;;;;;4947020;29;20213;-69
2022/02/12 05:59:12;;;;;;;4.18;3.03;;;0.90;99.90;;;;;;4947808;28;20206;-69
2022/02/12 06:01:39;;;;;;;5.65;2.25;;;0.80;99.90;;;;;;4936509;29;20237;-69
2022/02/12 06:04:05;;;;;;;4.63;3.00;;;0.80;99.90;;;;;;4949281;29;20209;-69
2022/02/12 06:06:32;;;;;;;4.20;3.80;;;0.80;99.90;;;;;;4941937;28;20629;-69
2022/02/12 06:09:00;;;;;;;6.65;5.93;;;0.70;99.90;;;;;;4941679;28;20261;-68
2022/02/12 06:11:27;;;;;;;7.43;4.15;;;0.70;99.90;;;;;;4944148;29;20277;-68
2022/02/12 06:13:53;;;;;;;6.72;3.90;;;0.70;99.90;;;;;;4954904;29;20233;-68
2022/02/12 06:16:20;;;;;;;20.17;6.78;;;0.70;99.90;;;;;;4944282;28;20663;-68
2022/02/12 06:18:47;;;;;;;5.97;4.38;;;0.70;99.90;;;;;;4935339;28;20225;-68
2022/02/12 06:21:14;;;;;;;7.22;4.60;;;0.60;99.90;;;;;;4940071;29;20228;-68
2022/02/12 06:23:41;;;;;;;6.10;3.63;;;0.60;99.90;;;;;;4954361;28;20264;-68
2022/02/12 06:26:09;;;;;;;4.78;4.00;;;0.60;99.90;;;;;;4945320;28;20263;-68
2022/02/12 06:28:36;;;;;;;22.65;13.57;;;0.60;99.90;;;;;;4946580;28;20229;-68
2022/02/12 06:31:02;;;;;;;7.07;4.70;;;0.60;99.90;;;;;;4952543;28;20229;-68
2022/02/12 06:33:29;;;;;;;14.70;6.85;;;0.50;99.90;;;;;;4940221;29;20581;-68
2022/02/12 06:35:56;;;;;;;4.10;3.75;;;0.50;99.90;;;;;;4954658;28;20209;-68
2022/02/12 06:38:23;;;;;;;5.38;4.35;;;0.50;99.90;;;;;;4938056;28;20202;-68
2022/02/12 06:40:50;;;;;;;8.77;4.70;;;0.40;99.90;;;;;;4935638;28;20594;-68
2022/02/12 06:43:18;;;;;;;12.88;4.85;;;0.40;99.90;;;;;;4935891;29;20253;-68
2022/02/12 06:45:44;;;;;;;8.82;6.53;;;0.40;99.90;;;;;;4935024;29;20217;-68
2022/02/12 06:48:11;;;;;;;5.95;4.80;;;0.40;99.90;;;;;;4945610;29;20210;-68
2022/02/12 06:50:38;;;;;;;5.80;3.47;;;0.40;99.90;;;;;;4935335;29;20383;-68
2022/02/12 06:53:04;;;;;;;7.03;4.22;;;0.40;99.90;;;;;;4946835;29;20205;-68
2022/02/12 06:55:31;;;;;;;10.57;4.18;;;0.40;99.90;;;;;;4953210;28;20256;-68
2022/02/12 06:57:58;;;;;;;5.25;4.85;;;0.40;99.90;;;;;;4944139;29;20202;-68
2022/02/12 07:00:27;;;;;;;13.15;7.93;;;0.40;99.90;;;;;;4934243;29;20273;-68
2022/02/12 07:02:54;;;;;;;4.15;3.80;;;0.40;99.90;;;;;;4943240;29;20229;-68
2022/02/12 07:05:22;;;;;;;5.95;3.92;;;0.30;99.90;;;;;;4936379;28;20575;-68
2022/02/12 07:07:50;;;;;;;6.55;3.50;;;0.40;99.90;;;;;;4947868;29;20301;-69
2022/02/12 07:10:18;;;;;;;6.05;3.83;;;0.40;99.90;;;;;;4943439;28;20204;-68
2022/02/12 07:12:45;;;;;;;4.80;3.15;;;0.40;99.90;;;;;;4944295;28;20275;-68
2022/02/12 07:15:12;;;;;;;6.60;4.45;;;0.40;99.90;;;;;;4944317;29;20205;-68
2022/02/12 07:17:40;;;;;;;6.90;3.92;;;0.40;99.90;;;;;;4942879;29;20217;-68
2022/02/12 07:20:09;;;;;;;33.38;17.73;;;0.40;99.90;;;;;;4950424;28;20204;-68
2022/02/12 07:22:36;;;;;;;5.85;4.95;;;0.40;99.90;;;;;;4934966;29;20233;-68
2022/02/12 07:25:03;;;;;;;4.57;4.28;;;0.40;99.90;;;;;;4938965;29;20209;-68
2022/02/12 07:27:30;;;;;;;5.00;4.35;;;0.50;99.90;;;;;;4936689;28;20672;-68
2022/02/12 07:29:57;;;;;;;6.15;4.35;;;0.50;99.90;;;;;;4940190;28;20308;-68
2022/02/12 07:32:23;;;;;;;4.28;3.97;;;0.50;99.90;;;;;;4940488;28;20254;-69
2022/02/12 07:34:51;;;;;;;7.50;4.40;;;0.50;99.90;;;;;;4934548;29;20264;-68
2022/02/12 07:37:18;;;;;;;4.45;3.65;;;0.50;99.90;;;;;;4944274;29;20213;-68
2022/02/12 07:39:45;;;;;;;4.60;3.95;;;0.50;99.90;;;;;;4953711;28;20217;-67
2022/02/12 07:42:11;;;;;;;10.50;6.80;;;0.60;99.90;;;;;;4946046;28;20226;-67
2022/02/12 07:44:38;;;;;;;8.35;6.40;;;0.60;99.90;;;;;;4942597;29;20217;-67
2022/02/12 07:47:05;;;;;;;10.55;5.60;;;0.60;99.90;;;;;;4950078;29;20201;-68
2022/02/12 07:49:32;;;;;;;7.88;5.57;;;0.60;99.90;;;;;;4937628;28;20206;-67
2022/02/12 07:52:00;;;;;;;12.13;9.85;;;0.70;99.90;;;;;;4938491;29;20213;-67
2022/02/12 07:54:27;;;;;;;9.35;5.07;;;0.70;99.90;;;;;;4944492;28;20202;-69
2022/02/12 07:56:56;;;;;;;9.77;6.05;;;0.80;99.90;;;;;;4950674;28;20654;-68
2022/02/12 07:59:23;;;;;;;18.58;9.50;;;0.80;99.90;;;;;;4934286;29;20209;-68
2022/02/12 08:01:50;;;;;;;13.38;6.47;;;0.90;99.90;;;;;;4935475;29;20234;-67
2022/02/12 08:04:17;;;;;;;17.30;9.15;;;0.90;99.90;;;;;;4935028;29;20276;-67
2022/02/12 08:09:31;;;;;;;11.77;4.57;;;0.90;99.90;;;;;;4938996;29;20224;-67
2022/02/12 08:12:13;;;;;;;5.55;3.53;;;1.00;99.90;;;;;;4947412;29;20229;-67
2022/02/12 08:14:41;;;;;;;16.33;4.72;;;1.00;99.90;;;;;;4934668;29;20583;-67
2022/02/12 08:17:07;;;;;;;8.40;4.15;;;1.20;99.90;;;;;;4936157;29;20293;-68
2022/02/12 08:19:34;;;;;;;15.43;5.13;;;1.60;99.90;;;;;;4938677;29;20209;-69
2022/02/12 08:22:01;;;;;;;5.72;3.55;;;1.70;99.90;;;;;;4943488;28;20225;-69
2022/02/12 08:24:27;;;;;;;3.88;3.03;;;1.70;99.90;;;;;;4942747;29;20284;-69
2022/02/12 08:26:55;;;;;;;7.00;4.43;;;1.90;99.90;;;;;;4936039;29;20928;-69
2022/02/12 08:29:24;;;;;;;7.95;4.35;;;2.20;99.90;;;;;;4933641;29;20642;-69
2022/02/12 08:31:51;;;;;;;3.35;3.15;;;2.20;99.90;;;;;;4940918;29;20225;-69
2022/02/12 08:34:17;;;;;;;4.10;3.03;;;2.10;99.90;;;;;;4934691;29;20210;-69
2022/02/12 08:36:44;;;;;;;2.72;2.55;;;2.00;99.90;;;;;;4936111;29;20623;-69
2022/02/12 08:39:10;;;;;;;3.08;2.88;;;1.90;99.90;;;;;;4945626;29;20685;-69
2022/02/12 08:41:37;;;;;;;12.88;9.27;;;1.90;99.90;;;;;;4942657;29;20280;-69
2022/02/12 08:44:06;;;;;;;8.02;5.30;;;1.90;99.90;;;;;;4944486;28;20214;-69
2022/02/12 08:46:32;;;;;;;7.32;5.65;;;2.00;99.90;;;;;;4940764;28;20201;-68
2022/02/12 08:48:59;;;;;;;5.03;4.05;;;2.00;99.90;;;;;;4941820;29;20221;-69
2022/02/12 08:51:26;;;;;;;5.25;4.85;;;2.00;99.90;;;;;;4933346;29;20237;-68
2022/02/12 08:53:53;;;;;;;4.10;1.98;;;2.10;99.90;;;;;;4944547;29;20209;-69
2022/02/12 08:56:21;;;;;;;5.18;3.13;;;2.10;99.90;;;;;;4942034;28;20201;-69
2022/02/12 08:58:48;;;;;;;10.13;5.60;;;2.20;99.90;;;;;;4936707;29;20206;-67
2022/02/12 09:01:16;;;;;;;13.10;7.53;;;2.20;99.90;;;;;;4946048;28;20241;-69
2022/02/12 09:03:43;;;;;;;5.65;5.15;;;2.30;99.90;;;;;;4943421;28;20275;-69
2022/02/12 09:06:10;;;;;;;12.07;7.75;;;2.40;99.90;;;;;;4943764;28;20260;-68
2022/02/12 09:08:36;;;;;;;7.10;5.20;;;2.40;99.90;;;;;;4947947;28;20205;-68
2022/02/12 09:11:03;;;;;;;19.13;5.50;;;2.50;99.90;;;;;;4951282;28;20792;-68
2022/02/12 09:13:30;;;;;;;11.57;5.75;;;2.60;99.90;;;;;;4935618;29;20734;-68
2022/02/12 09:15:56;;;;;;;10.73;4.47;;;2.70;99.90;;;;;;4932795;29;20252;-69
2022/02/12 09:18:24;;;;;;;7.22;4.63;;;2.70;99.90;;;;;;4936307;29;20276;-68
2022/02/12 09:20:51;;;;;;;12.57;4.88;;;2.80;99.90;;;;;;4933150;29;20218;-69
2022/02/12 09:23:18;;;;;;;8.68;3.63;;;2.90;99.90;;;;;;4939105;29;20230;-69
2022/02/12 09:25:44;;;;;;;8.85;4.47;;;3.00;99.90;;;;;;4933365;29;20629;-69
2022/02/12 09:28:11;;;;;;;5.07;4.47;;;3.00;99.90;;;;;;4935272;29;20678;-69
2022/02/12 09:30:38;;;;;;;8.65;3.40;;;3.10;99.90;;;;;;4935896;29;20767;-70
2022/02/12 09:33:05;;;;;;;9.82;3.90;;;3.20;99.90;;;;;;4933186;29;20233;-66
2022/02/12 09:35:33;;;;;;;3.10;2.15;;;3.30;99.90;;;;;;4932512;29;20217;-69
2022/02/12 09:38:00;;;;;;;8.93;2.88;;;3.60;99.90;;;;;;4939893;29;20265;-69
2022/02/12 09:40:28;;;;;;;4.75;3.90;;;3.70;99.90;;;;;;4932584;29;20206;-68
2022/02/12 09:42:58;;;;;;;2.50;2.30;;;3.80;99.90;;;;;;4938837;29;20221;-68
2022/02/12 09:45:26;;;;;;;5.60;2.08;;;3.80;99.90;;;;;;4941653;29;20533;-68
2022/02/12 09:47:53;;;;;;;3.90;2.58;;;3.90;99.90;;;;;;4944541;28;20257;-68
2022/02/12 09:50:21;;;;;;;6.40;2.20;;;3.90;99.90;;;;;;4939680;29;20266;-68
2022/02/12 09:52:52;;;;;;;2.38;2.20;;;4.00;99.90;;;;;;4937540;28;20213;-69
2022/02/12 09:55:19;;;;;;;3.83;2.35;;;4.00;99.90;;;;;;4946324;29;20202;-68
2022/02/12 09:57:45;;;;;;;6.47;4.90;;;4.10;99.90;;;;;;4949128;29;20209;-69
2022/02/12 10:00:15;;;;;;;8.50;4.55;;;4.20;99.90;;;;;;4950636;28;20209;-67
2022/02/12 10:02:44;;;;;;;7.70;5.70;;;4.20;99.90;;;;;;4946893;28;20228;-68
2022/02/12 10:05:26;;;;;;;12.85;6.68;;;4.30;99.90;;;;;;4935762;29;20214;-68
2022/02/12 10:08:12;;;;;;;4.68;4.20;;;4.40;99.90;;;;;;4944536;29;20226;-69
2022/02/12 10:10:40;;;;;;;3.95;3.65;;;4.50;99.90;;;;;;4944566;29;20233;-68
2022/02/12 10:13:14;;;;;;;4.50;4.10;;;4.50;99.90;;;;;;4942629;29;20205;-68
2022/02/12 10:15:43;;;;;;;2.83;2.63;;;4.60;99.90;;;;;;4947373;28;20637;-67
2022/02/12 10:18:10;;;;;;;8.52;5.05;;;4.60;99.90;;;;;;4949152;28;20276;-68
2022/02/12 10:20:40;;;;;;;5.65;5.00;;;4.60;99.90;;;;;;4935945;29;20898;-68
2022/02/12 10:23:10;;;;;;;4.38;3.10;;;4.60;99.90;;;;;;4936907;29;20213;-68
2022/02/12 10:25:40;;;;;;;3.38;3.08;;;4.70;99.90;;;;;;4945945;29;20213;-68
2022/02/12 10:28:08;;;;;;;3.97;3.45;;;4.80;99.90;;;;;;4940803;29;20288;-67
2022/02/12 10:30:36;;;;;;;3.70;2.90;;;4.80;99.90;;;;;;4954027;28;20276;-68
2022/02/12 10:33:05;;;;;;;7.13;3.90;;;4.80;99.90;;;;;;4952244;28;20611;-68
2022/02/12 10:35:32;;;;;;;11.93;3.35;;;4.90;99.90;;;;;;4947184;28;20202;-68
2022/02/12 10:38:00;;;;;;;4.45;2.67;;;4.90;99.90;;;;;;4939436;29;20272;-68
2022/02/12 10:40:29;;;;;;;1.70;1.70;;;5.00;99.90;;;;;;4937318;29;20208;-67
2022/02/12 10:42:56;;;;;;;6.18;2.65;;;5.00;99.90;;;;;;4944276;29;20244;-68
2022/02/12 10:45:25;;;;;;;2.30;2.03;;;5.10;99.90;;;;;;4938631;29;20206;-67
2022/02/12 10:47:53;;;;;;;5.18;2.28;;;5.10;99.90;;;;;;4938430;29;20238;-68
2022/02/12 10:50:21;;;;;;;3.40;2.08;;;5.20;99.90;;;;;;4935959;29;20671;-68
2022/02/12 10:52:49;;;;;;;2.75;1.95;;;5.20;99.90;;;;;;4944971;29;20202;-67
2022/02/12 10:55:36;;;;;;;1.65;1.45;;;5.30;99.90;;;;;;4935048;29;20214;-67
2022/02/12 10:58:05;;;;;;;2.10;2.00;;;5.30;99.90;;;;;;4937290;29;20261;-66
2022/02/12 11:00:33;;;;;;;2.33;2.13;;;5.30;99.90;;;;;;4951623;28;20568;-67
2022/02/12 11:03:04;;;;;;;1.80;1.75;;;5.40;99.90;;;;;;4937335;28;20225;-67
2022/02/12 11:05:33;;;;;;;2.58;2.25;;;5.40;99.90;;;;;;4935092;29;20216;-67
2022/02/12 11:08:00;;;;;;;12.40;8.13;;;5.50;99.90;;;;;;4942058;29;20206;-69
2022/02/12 11:10:28;;;;;;;1.88;1.88;;;5.50;99.90;;;;;;4948875;29;20209;-67
2022/02/12 11:12:57;;;;;;;25.13;12.35;;;5.50;99.90;;;;;;4942501;29;20354;-66
2022/02/12 11:15:25;;;;;;;5.38;4.75;;;5.70;99.90;;;;;;4941696;29;20206;-67
2022/02/12 11:17:52;;;;;;;4.57;1.00;;;5.70;99.90;;;;;;4944182;28;20702;-67
2022/02/12 11:20:22;;;;;;;3.72;2.30;;;5.70;99.90;;;;;;4944467;29;20213;-67
2022/02/12 11:22:55;;;;;;;3.17;2.05;;;5.70;99.90;;;;;;4949353;28;20694;-65
2022/02/12 11:25:36;;;;;;;3.33;3.03;;;5.60;99.90;;;;;;4939938;28;20205;-69
2022/02/12 11:28:05;;;;;;;2.47;1.95;;;5.60;99.90;;;;;;4942999;29;20211;-69
2022/02/12 11:30:32;;;;;;;4.18;2.22;;;5.50;99.90;;;;;;4938258;28;20205;-67
2022/02/12 11:33:01;;;;;;;2.65;1.30;;;5.60;99.90;;;;;;4940669;28;20214;-68
2022/02/12 11:35:27;;;;;;;3.45;1.83;;;5.50;99.90;;;;;;4940184;29;20746;-67
2022/02/12 11:37:54;;;;;;;2.08;1.35;;;5.50;99.90;;;;;;4948992;29;20550;-68
2022/02/12 11:40:23;;;;;;;2.00;1.25;;;5.40;99.90;;;;;;4939225;28;20216;-69
2022/02/12 11:42:53;;;;;;;3.05;2.05;;;5.40;99.90;;;;;;4934376;29;20226;-68
2022/02/12 11:45:25;;;;;;;5.30;1.90;;;5.40;99.90;;;;;;4934842;29;20217;-68
2022/02/12 11:48:11;;;;;;;5.20;1.77;;;5.30;99.90;;;;;;4942579;29;20233;-68
2022/02/12 11:50:42;;;;;;;7.65;2.33;;;5.30;99.90;;;;;;4933126;29;20229;-67
2022/02/12 11:53:34;;;;;;;12.68;7.55;;;5.30;99.90;;;;;;4938946;29;20340;-68
2022/02/12 11:56:03;;;;;;;3.25;1.80;;;5.30;99.90;;;;;;4937486;29;20210;-67
2022/02/12 11:59:09;;;;;;;5.57;4.70;;;5.30;99.90;;;;;;4948040;29;20256;-67
2022/02/12 12:01:53;;;;;;;6.03;3.25;;;5.30;99.90;;;;;;4949293;29;20229;-68
2022/02/12 12:04:25;;;;;;;6.50;4.40;;;5.30;99.90;;;;;;4952176;28;20324;-67
2022/02/12 12:07:13;;;;;;;5.18;3.47;;;5.30;99.90;;;;;;4951742;29;20296;-68
2022/02/12 12:09:56;;;;;;;5.28;3.70;;;5.40;99.90;;;;;;4950889;29;20213;-66
2022/02/12 12:12:24;;;;;;;8.75;5.85;;;5.40;99.90;;;;;;4933844;29;20241;-67
2022/02/12 12:14:52;;;;;;;5.72;5.22;;;5.50;99.90;;;;;;4948144;29;20202;-67
2022/02/12 12:17:24;;;;;;;13.65;7.60;;;5.60;99.90;;;;;;4941267;28;20288;-66
2022/02/12 12:19:53;;;;;;;19.33;9.85;;;5.70;99.90;;;;;;4939432;29;20770;-67
2022/02/12 12:22:21;;;;;;;10.50;5.35;;;5.80;99.90;;;;;;4941900;29;20573;-68
2022/02/12 12:24:47;;;;;;;5.70;3.65;;;5.90;99.90;;;;;;4935784;28;20225;-67
2022/02/12 12:27:18;;;;;;;7.97;5.53;;;5.90;99.90;;;;;;4933661;29;20249;-68
2022/02/12 12:32:31;;;;;;;5.53;4.03;;;5.90;99.90;;;;;;4932893;29;20224;-67
2022/02/12 12:35:00;;;;;;;7.15;4.80;;;6.00;99.90;;;;;;4932826;29;20237;-67
2022/02/12 12:37:29;;;;;;;12.65;7.35;;;6.00;99.90;;;;;;4933241;29;20635;-67
2022/02/12 12:39:57;;;;;;;7.10;4.65;;;5.90;99.90;;;;;;4950878;29;20685;-67
2022/02/12 12:42:26;;;;;;;2.78;2.55;;;5.90;99.90;;;;;;4952169;28;20229;-67
2022/02/12 12:45:03;;;;;;;2.25;2.15;;;5.90;99.90;;;;;;4952241;28;20252;-67
2022/02/12 12:47:31;;;;;;;4.30;2.38;;;5.90;99.90;;;;;;4939592;28;20205;-68
2022/02/12 12:49:59;;;;;;;6.40;2.75;;;5.90;99.90;;;;;;4949965;29;20261;-68
2022/02/12 12:52:27;;;;;;;5.90;3.83;;;6.00;99.90;;;;;;4951660;28;20229;-68
2022/02/12 12:54:57;;;;;;;10.65;5.65;;;6.00;99.90;;;;;;4944883;28;20202;-67
2022/02/12 12:57:29;;;;;;;2.50;2.30;;;6.00;99.90;;;;;;4932769;29;20300;-68
2022/02/12 12:59:58;;;;;;;2.00;1.90;;;6.00;99.90;;;;;;4932731;29;20218;-66
2022/02/12 13:02:26;;;;;;;2.08;1.90;;;6.00;99.90;;;;;;4932690;29;20242;-69
2022/02/12 13:04:56;;;;;;;2.00;1.83;;;6.00;99.90;;;;;;4932973;29;20230;-67
2022/02/12 13:07:24;;;;;;;5.25;3.65;;;6.10;99.90;;;;;;4932910;29;20245;-68
2022/02/12 13:09:52;;;;;;;8.57;4.22;;;6.10;99.90;;;;;;4932708;29;20206;-66
2022/02/12 13:12:24;;;;;;;6.15;4.05;;;6.10;99.90;;;;;;4932703;29;20241;-66
2022/02/12 13:14:51;;;;;;;3.20;2.90;;;6.20;99.90;;;;;;4932953;29;20217;-69
2022/02/12 13:17:18;;;;;;;5.63;4.22;;;6.20;99.90;;;;;;4935098;29;20209;-67
2022/02/12 13:19:46;;;;;;;3.60;3.30;;;6.20;99.90;;;;;;4938874;29;20205;-68
2022/02/12 13:22:15;;;;;;;3.97;3.28;;;6.20;99.90;;;;;;4948412;29;20225;-68
2022/02/12 13:24:42;;;;;;;3.17;2.90;;;6.20;99.90;;;;;;4951949;28;20229;-68
2022/02/12 13:27:10;;;;;;;3.50;2.40;;;6.20;99.90;;;;;;4950801;28;20213;-66
2022/02/12 13:29:37;;;;;;;2.22;2.13;;;6.20;99.90;;;;;;4955172;28;20217;-67
2022/02/12 13:32:07;;;;;;;8.93;2.83;;;6.20;99.90;;;;;;4955076;28;20237;-66
2022/02/12 13:34:38;;;;;;;5.93;3.03;;;6.20;99.90;;;;;;4942008;28;20205;-66
2022/02/12 13:37:07;;;;;;;2.38;2.00;;;6.20;99.90;;;;;;4936334;29;20293;-67
2022/02/12 13:39:36;;;;;;;6.53;2.03;;;6.20;99.90;;;;;;4935819;29;20205;-68
2022/02/12 13:42:03;;;;;;;2.50;1.63;;;6.20;99.90;;;;;;4936196;29;20707;-67
2022/02/12 13:44:30;;;;;;;3.95;3.65;;;6.10;99.90;;;;;;4936372;29;20307;-67
2022/02/12 13:47:02;;;;;;;3.70;2.50;;;6.10;99.90;;;;;;4935349;29;20679;-67
2022/02/12 13:49:29;;;;;;;4.95;4.30;;;6.20;99.90;;;;;;4953019;29;20307;-67
2022/02/12 13:51:57;;;;;;;3.08;2.90;;;6.20;99.90;;;;;;4954648;28;20239;-67
2022/02/12 13:54:26;;;;;;;4.65;3.47;;;6.20;99.90;;;;;;4946087;28;20202;-67
2022/02/12 13:56:57;;;;;;;6.68;2.75;;;6.20;99.90;;;;;;4936222;29;20210;-67
2022/02/12 13:59:24;;;;;;;9.80;2.65;;;6.20;99.90;;;;;;4935954;29;20280;-67
2022/02/12 14:01:52;;;;;;;7.15;2.15;;;6.10;99.90;;;;;;4935284;29;20297;-67
2022/02/12 14:04:19;;;;;;;5.18;4.85;;;6.00;99.90;;;;;;4943043;29;20221;-66
2022/02/12 14:06:46;;;;;;;4.03;2.70;;;6.00;99.90;;;;;;4937597;28;20297;-67
2022/02/12 14:09:15;;;;;;;2.85;2.55;;;6.00;99.90;;;;;;4935814;29;20205;-66
2022/02/12 14:11:43;;;;;;;2.67;2.13;;;6.00;99.90;;;;;;4935350;29;20679;-67
2022/02/12 14:14:13;;;;;;;2.90;1.85;;;5.90;99.90;;;;;;4936008;29;20583;-67
2022/02/12 14:16:39;;;;;;;2.95;2.38;;;5.90;99.90;;;;;;4935261;29;20305;-67
2022/02/12 14:19:06;;;;;;;6.85;3.45;;;5.90;99.90;;;;;;4951344;29;20205;-67
2022/02/12 14:21:34;;;;;;;5.03;2.70;;;5.90;99.90;;;;;;4954821;28;20233;-68
2022/02/12 14:24:02;;;;;;;2.15;2.03;;;5.90;99.90;;;;;;4949837;28;20365;-67
2022/02/12 14:26:29;;;;;;;3.38;3.08;;;5.90;99.90;;;;;;4947015;28;20256;-68
2022/02/12 14:28:56;;;;;;;6.22;2.17;;;5.90;99.90;;;;;;4954566;28;20253;-68
2022/02/12 14:31:24;;;;;;;5.40;2.50;;;5.90;99.90;;;;;;4954005;28;20736;-68
2022/02/12 14:33:51;;;;;;;3.17;2.70;;;5.90;99.90;;;;;;4952764;28;20205;-67
2022/02/12 14:36:18;;;;;;;7.60;3.85;;;5.90;99.90;;;;;;4954752;28;20217;-67
2022/02/12 14:38:45;;;;;;;3.78;2.75;;;5.90;99.90;;;;;;4953738;28;20201;-68
2022/02/12 14:41:12;;;;;;;4.22;3.22;;;5.90;99.90;;;;;;4941715;28;20233;-68
2022/02/12 14:43:39;;;;;;;5.40;3.80;;;5.90;99.90;;;;;;4949256;29;20788;-67
2022/02/12 14:46:06;;;;;;;6.25;2.50;;;6.00;99.90;;;;;;4950378;28;20201;-66
2022/02/12 14:48:35;;;;;;;3.20;2.90;;;5.90;99.90;;;;;;4939095;28;20234;-67
2022/02/12 14:51:02;;;;;;;6.60;3.20;;;5.90;99.90;;;;;;4937279;29;20332;-67
2022/02/12 14:53:29;;;;;;;6.22;3.20;;;5.80;99.90;;;;;;4934784;29;20307;-68
2022/02/12 14:55:57;;;;;;;5.25;3.00;;;5.80;99.90;;;;;;4941156;29;20590;-67
2022/02/12 14:58:25;;;;;;;3.53;3.17;;;5.80;99.90;;;;;;4934944;29;20613;-67
2022/02/12 15:00:51;;;;;;;2.63;2.42;;;5.80;99.90;;;;;;4940877;29;20698;-69
2022/02/12 15:03:18;;;;;;;1.70;1.60;;;5.70;99.90;;;;;;4954033;28;20240;-65
2022/02/12 15:05:46;;;;;;;5.03;3.05;;;5.70;99.90;;;;;;4940884;29;20221;-68
2022/02/12 15:08:14;;;;;;;11.82;8.93;;;5.70;99.90;;;;;;4954248;28;20265;-68
2022/02/12 15:10:41;;;;;;;6.15;2.92;;;5.60;99.90;;;;;;4948042;28;20300;-67
2022/02/12 15:13:07;;;;;;;14.50;9.95;;;5.60;99.90;;;;;;4934892;29;20249;-69
2022/02/12 15:15:35;;;;;;;4.18;3.90;;;5.60;99.90;;;;;;4944161;29;20350;-68
2022/02/12 15:18:01;;;;;;;5.05;4.43;;;5.60;99.90;;;;;;4946583;29;20325;-68
2022/02/12 15:20:28;;;;;;;9.27;5.45;;;5.50;99.90;;;;;;4951155;28;20645;-69
2022/02/12 15:22:56;;;;;;;8.75;4.30;;;5.50;99.90;;;;;;4936451;29;20202;-68
2022/02/12 15:25:24;;;;;;;9.25;5.45;;;5.50;99.90;;;;;;4948502;29;20224;-67
2022/02/12 15:27:51;;;;;;;4.05;3.67;;;5.50;99.90;;;;;;4935968;29;20210;-68
2022/02/12 15:30:17;;;;;;;6.75;5.32;;;5.40;99.90;;;;;;4942143;29;20209;-68
2022/02/12 15:32:45;;;;;;;5.28;3.42;;;5.40;99.90;;;;;;4950619;29;20217;-69
2022/02/12 15:35:12;;;;;;;5.10;3.17;;;5.30;99.90;;;;;;4951680;28;20213;-69
2022/02/12 15:37:38;;;;;;;4.65;3.58;;;5.30;99.90;;;;;;4952039;28;20321;-67
2022/02/12 15:40:08;;;;;;;3.13;2.17;;;5.30;99.90;;;;;;4953179;28;20248;-68
2022/02/12 15:42:34;;;;;;;2.72;2.53;;;5.30;99.90;;;;;;4942334;28;20241;-68
2022/02/12 15:45:02;;;;;;;3.13;2.92;;;5.20;99.90;;;;;;4943818;28;20272;-67
2022/02/12 15:47:29;;;;;;;4.03;3.55;;;5.20;99.90;;;;;;4941383;28;20288;-68
2022/02/12 15:49:55;;;;;;;8.13;3.20;;;5.10;99.90;;;;;;4946872;29;20209;-67
2022/02/12 15:52:22;;;;;;;7.10;2.88;;;5.10;99.90;;;;;;4948206;28;20276;-67
2022/02/12 15:54:49;;;;;;;4.25;2.97;;;5.00;99.90;;;;;;4943864;29;20241;-69
2022/02/12 15:57:17;;;;;;;2.25;2.10;;;5.00;99.90;;;;;;4944589;28;20260;-68
2022/02/12 15:59:44;;;;;;;5.45;1.75;;;4.90;99.90;;;;;;4935296;28;20214;-68
2022/02/12 16:02:11;;;;;;;1.92;1.83;;;4.90;99.90;;;;;;4942809;28;20234;-68
2022/02/12 16:04:38;;;;;;;4.25;1.92;;;4.80;99.90;;;;;;4943393;28;20287;-67
2022/02/12 16:07:05;;;;;;;1.95;1.85;;;4.80;99.90;;;;;;4952999;28;20213;-67
2022/02/12 16:09:31;;;;;;;1.27;1.27;;;4.80;99.90;;;;;;4949000;28;20198;-65
2022/02/12 16:11:58;;;;;;;4.00;1.65;;;4.70;99.90;;;;;;4947981;29;20351;-67
2022/02/12 16:14:26;;;;;;;1.25;1.15;;;4.70;99.90;;;;;;4947278;28;20202;-68
2022/02/12 16:16:52;;;;;;;2.42;2.22;;;4.70;99.90;;;;;;4941784;28;20269;-69
2022/02/12 16:19:19;;;;;;;2.38;1.55;;;4.60;99.90;;;;;;4937832;28;20243;-68
2022/02/12 16:21:46;;;;;;;5.88;2.42;;;4.60;99.90;;;;;;4944483;29;20225;-68
2022/02/12 16:24:12;;;;;;;2.65;2.45;;;4.50;99.90;;;;;;4934738;29;20261;-68
2022/02/12 16:26:39;;;;;;;4.13;2.47;;;4.50;99.90;;;;;;4937294;29;20217;-67
2022/02/12 16:29:06;;;;;;;2.65;2.15;;;4.40;99.90;;;;;;4940767;29;20271;-68
2022/02/12 16:31:34;;;;;;;3.33;2.20;;;4.40;99.90;;;;;;4944250;28;20253;-68
2022/02/12 16:34:01;;;;;;;4.97;4.57;;;4.40;99.90;;;;;;4948855;28;20212;-67
2022/02/12 16:36:33;;;;;;;5.47;5.00;;;4.30;99.90;;;;;;4938295;28;20212;-68
2022/02/12 16:39:00;;;;;;;3.92;2.90;;;4.20;99.90;;;;;;4945712;28;20628;-67
2022/02/12 16:41:26;;;;;;;7.35;3.80;;;4.20;99.90;;;;;;4944177;28;20284;-68
2022/02/12 16:43:53;;;;;;;2.25;2.15;;;4.10;99.90;;;;;;4946262;28;20212;-67
2022/02/12 16:46:20;;;;;;;8.00;3.13;;;4.10;99.90;;;;;;4936151;29;20281;-68
2022/02/12 16:48:48;;;;;;;4.93;3.63;;;4.00;99.90;;;;;;4939775;29;20265;-68
2022/02/12 16:51:15;;;;;;;10.02;4.20;;;4.00;99.90;;;;;;4940723;29;20854;-67
2022/02/12 16:53:41;;;;;;;4.70;3.97;;;3.90;99.90;;;;;;4937060;29;20599;-68
2022/02/12 16:56:08;;;;;;;3.20;2.65;;;3.90;99.90;;;;;;4945362;29;20619;-68
2022/02/12 16:58:35;;;;;;;4.97;3.60;;;3.80;99.90;;;;;;4933650;28;20214;-67
2022/02/12 17:01:01;;;;;;;7.65;5.30;;;3.80;99.90;;;;;;4929355;28;20607;-68
2022/02/12 17:03:28;;;;;;;6.45;4.70;;;3.80;99.90;;;;;;4939237;28;20271;-69
2022/02/12 17:05:56;;;;;;;5.18;3.50;;;3.70;99.90;;;;;;4938561;28;20315;-67
2022/02/12 17:08:24;;;;;;;4.85;3.22;;;3.70;99.90;;;;;;4942417;28;20319;-69
2022/02/12 17:10:51;;;;;;;4.95;2.90;;;3.70;99.90;;;;;;4939973;28;20252;-68
2022/02/12 17:13:17;;;;;;;3.78;2.55;;;3.60;99.90;;;;;;4939511;28;20209;-67
2022/02/12 17:15:46;;;;;;;2.83;2.30;;;3.50;99.90;;;;;;4936949;28;20276;-69
2022/02/12 17:18:13;;;;;;;2.85;2.63;;;3.40;99.90;;;;;;4938768;28;20206;-68
2022/02/12 17:20:39;;;;;;;5.45;2.60;;;3.40;99.90;;;;;;4934118;28;20291;-68
2022/02/12 17:23:07;;;;;;;2.20;2.10;;;3.40;99.90;;;;;;4936556;29;20441;-67
2022/02/12 17:25:34;;;;;;;3.72;2.65;;;3.30;99.90;;;;;;4932113;28;20229;-69
2022/02/12 17:28:01;;;;;;;4.07;2.90;;;3.40;99.90;;;;;;4940010;28;20217;-67
2022/02/12 17:30:28;;;;;;;3.45;2.53;;;3.30;99.90;;;;;;4934574;29;20268;-68
2022/02/12 17:32:55;;;;;;;3.63;3.22;;;3.30;99.90;;;;;;4935191;29;20289;-67
2022/02/12 17:35:21;;;;;;;6.63;2.80;;;3.30;99.90;;;;;;4935149;28;20206;-69
2022/02/12 17:37:48;;;;;;;6.97;5.25;;;3.30;99.90;;;;;;4934363;28;20209;-68
2022/02/12 17:40:16;;;;;;;13.18;7.55;;;3.30;99.90;;;;;;4934264;28;20272;-69
2022/02/12 17:42:43;;;;;;;6.00;5.07;;;3.30;99.90;;;;;;4935964;28;20812;-68
2022/02/12 17:45:10;;;;;;;21.52;8.40;;;3.30;99.90;;;;;;4936816;28;20234;-69
2022/02/12 17:47:37;;;;;;;15.82;8.45;;;3.30;99.90;;;;;;4935737;29;20272;-68
2022/02/12 17:50:04;;;;;;;24.90;10.70;;;3.30;99.90;;;;;;4936458;29;20225;-68
2022/02/12 17:52:31;;;;;;;12.65;7.38;;;3.20;99.90;;;;;;4936575;28;20233;-68
2022/02/12 17:54:57;;;;;;;9.82;6.10;;;3.20;99.90;;;;;;4931619;28;20585;-68
2022/02/12 17:57:25;;;;;;;7.28;4.32;;;3.20;99.90;;;;;;4932915;29;20771;-67
2022/02/12 17:59:52;;;;;;;5.80;3.40;;;3.20;99.90;;;;;;4938035;29;20494;-67
2022/02/12 18:02:19;;;;;;;8.65;4.10;;;3.10;99.90;;;;;;4933572;28;22233;-68
2022/02/12 18:04:46;;;;;;;4.95;4.22;;;3.10;99.90;;;;;;4932442;29;20235;-68